Pilot Point, Alaska
Current Conditions -  °F | °C
As of 11:56 AM on Friday 24 Oct 2014 (Local Time) from PAPN Reporting Station
Clear Clear  
Wind Chill: 34°   Ceiling: Unl
Heat Index: 40°   Visibility: 10mi
Dew Point: 32°   Wind: 8mph
Humidity: 73%   Direction: 340°NNW
Pressure: 29.99"   Gusts: NA
Location:  57.56°N, 157.58°W
Report Text: PAPN 241956Z AUTO 34007KT 10SM CLR 04/00 A2999 RMK AO2 PWINO TSNO T00440000 SLP155 $
Loading
Personal Weather Stations






























Interactive Weather Map
Tropical Storm Tracking
New forecast layout! Learn more

10-Day Weather Forecast

Advertisements
Track Severe Weather on mobile